sensor_id;sensor_type;location;lat;lon;timestamp;pressure;altitude;pressure_sealevel;temperature;humidity
38466;BME280;24244;51.950;5.902;2024-02-14T00:00:54;101276.06;;;8.70;99.94
38466;BME280;24244;51.950;5.902;2024-02-14T00:03:21;101272.28;;;8.72;99.68
38466;BME280;24244;51.950;5.902;2024-02-14T00:05:52;101263.66;;;8.70;99.66
38466;BME280;24244;51.950;5.902;2024-02-14T00:08:19;101267.28;;;8.69;99.67
38466;BME280;24244;51.950;5.902;2024-02-14T00:10:47;101260.03;;;8.71;100.00
38466;BME280;24244;51.950;5.902;2024-02-14T00:13:15;101247.44;;;8.73;100.00
38466;BME280;24244;51.950;5.902;2024-02-14T00:15:44;101246.44;;;8.74;100.00
38466;BME280;24244;51.950;5.902;2024-02-14T00:18:13;101259.03;;;8.72;99.70
38466;BME280;24244;51.950;5.902;2024-02-14T00:20:40;101247.59;;;8.72;100.00
38466;BME280;24244;51.950;5.902;2024-02-14T00:23:08;101250.25;;;8.72;100.00
38466;BME280;24244;51.950;5.902;2024-02-14T00:25:35;101242.31;;;8.72;100.00
38466;BME280;24244;51.950;5.902;2024-02-14T00:28:02;101246.44;;;8.74;100.00
38466;BME280;24244;51.950;5.902;2024-02-14T00:30:30;101239.97;;;8.77;100.00
38466;BME280;24244;51.950;5.902;2024-02-14T00:32:56;101231.88;;;8.78;100.00
38466;BME280;24244;51.950;5.902;2024-02-14T00:35:24;101237.03;;;8.80;100.00
38466;BME280;24244;51.950;5.902;2024-02-14T00:37:51;101231.53;;;8.81;100.00
38466;BME280;24244;51.950;5.902;2024-02-14T00:40:20;101219.31;;;8.80;100.00
38466;BME280;24244;51.950;5.902;2024-02-14T00:42:46;101221.75;;;8.82;100.00
38466;BME280;24244;51.950;5.902;2024-02-14T00:45:13;101220.94;;;8.81;100.00
38466;BME280;24244;51.950;5.902;2024-02-14T00:47:40;101218.94;;;8.83;100.00
38466;BME280;24244;51.950;5.902;2024-02-14T00:50:08;101216.31;;;8.83;100.00
38466;BME280;24244;51.950;5.902;2024-02-14T00:52:34;101215.47;;;8.83;100.00
38466;BME280;24244;51.950;5.902;2024-02-14T00:55:01;101218.78;;;8.85;100.00
38466;BME280;24244;51.950;5.902;2024-02-14T00:57:31;101210.69;;;8.86;100.00
38466;BME280;24244;51.950;5.902;2024-02-14T00:59:59;101215.84;;;8.88;100.00
38466;BME280;24244;51.950;5.902;2024-02-14T01:02:27;101214.16;;;8.87;100.00
38466;BME280;24244;51.950;5.902;2024-02-14T01:04:53;101217.66;;;8.87;100.00
38466;BME280;24244;51.950;5.902;2024-02-14T01:07:20;101218.47;;;8.88;100.00
38466;BME280;24244;51.950;5.902;2024-02-14T01:09:47;101211.16;;;8.90;100.00
38466;BME280;24244;51.950;5.902;2024-02-14T01:12:14;101213.50;;;8.93;100.00
38466;BME280;24244;51.950;5.902;2024-02-14T01:14:42;101214.34;;;8.93;100.00
38466;BME280;24244;51.950;5.902;2024-02-14T01:17:10;101198.44;;;8.93;100.00
38466;BME280;24244;51.950;5.902;2024-02-14T01:19:36;101208.88;;;8.95;100.00
38466;BME280;24244;51.950;5.902;2024-02-14T01:22:03;101208.69;;;8.96;100.00
38466;BME280;24244;51.950;5.902;2024-02-14T01:24:30;101205.88;;;8.98;100.00
38466;BME280;24244;51.950;5.902;2024-02-14T01:26:57;101210.19;;;8.99;100.00
38466;BME280;24244;51.950;5.902;2024-02-14T01:29:24;101190.66;;;9.00;100.00
38466;BME280;24244;51.950;5.902;2024-02-14T01:31:52;101207.22;;;9.02;100.00
38466;BME280;24244;51.950;5.902;2024-02-14T01:34:19;101195.78;;;9.01;100.00
38466;BME280;24244;51.950;5.902;2024-02-14T01:36:47;101189.47;;;9.02;100.00
38466;BME280;24244;51.950;5.902;2024-02-14T01:39:14;101198.09;;;9.04;100.00
38466;BME280;24244;51.950;5.902;2024-02-14T01:41:44;101191.81;;;9.06;100.00
38466;BME280;24244;51.950;5.902;2024-02-14T01:44:12;101193.47;;;9.07;100.00
38466;BME280;24244;51.950;5.902;2024-02-14T01:46:39;101189.81;;;9.08;100.00
38466;BME280;24244;51.950;5.902;2024-02-14T01:49:07;101186.19;;;9.09;100.00
38466;BME280;24244;51.950;5.902;2024-02-14T01:51:35;101189.47;;;9.11;100.00
38466;BME280;24244;51.950;5.902;2024-02-14T01:54:02;101191.97;;;9.12;100.00
38466;BME280;24244;51.950;5.902;2024-02-14T01:56:30;101204.06;;;9.15;100.00
38466;BME280;24244;51.950;5.902;2024-02-14T01:58:58;101193.47;;;9.15;100.00
38466;BME280;24244;51.950;5.902;2024-02-14T02:01:26;101190.66;;;9.16;100.00
38466;BME280;24244;51.950;5.902;2024-02-14T02:03:53;101194.78;;;9.19;100.00
38466;BME280;24244;51.950;5.902;2024-02-14T02:06:21;101205.22;;;9.20;100.00
38466;BME280;24244;51.950;5.902;2024-02-14T02:08:48;101198.78;;;9.23;100.00
38466;BME280;24244;51.950;5.902;2024-02-14T02:11:16;101188.81;;;9.25;100.00
38466;BME280;24244;51.950;5.902;2024-02-14T02:13:42;101192.28;;;9.25;100.00
38466;BME280;24244;51.950;5.902;2024-02-14T02:16:10;101190.31;;;9.27;100.00
38466;BME280;24244;51.950;5.902;2024-02-14T02:18:38;101187.50;;;9.29;100.00
38466;BME280;24244;51.950;5.902;2024-02-14T02:21:05;101179.38;;;9.30;100.00
38466;BME280;24244;51.950;5.902;2024-02-14T02:23:35;101185.47;;;9.31;100.00
38466;BME280;24244;51.950;5.902;2024-02-14T02:26:02;101189.78;;;9.32;100.00
38466;BME280;24244;51.950;5.902;2024-02-14T02:28:29;101188.78;;;9.33;100.00
38466;BME280;24244;51.950;5.902;2024-02-14T02:30:55;101188.78;;;9.33;100.00
38466;BME280;24244;51.950;5.902;2024-02-14T02:33:22;101183.50;;;9.33;100.00
38466;BME280;24244;51.950;5.902;2024-02-14T02:35:50;101195.75;;;9.34;100.00
38466;BME280;24244;51.950;5.902;2024-02-14T02:38:17;101194.94;;;9.33;100.00
38466;BME280;24244;51.950;5.902;2024-02-14T02:40:45;101194.78;;;9.35;100.00
38466;BME280;24244;51.950;5.902;2024-02-14T02:43:12;101195.44;;;9.37;100.00
38466;BME280;24244;51.950;5.902;2024-02-14T02:45:38;101197.28;;;9.36;100.00
38466;BME280;24244;51.950;5.902;2024-02-14T02:48:06;101198.25;;;9.35;100.00
38466;BME280;24244;51.950;5.902;2024-02-14T02:50:33;101190.31;;;9.35;100.00
38466;BME280;24244;51.950;5.902;2024-02-14T02:53:00;101193.78;;;9.36;100.00
38466;BME280;24244;51.950;5.902;2024-02-14T02:55:27;101199.91;;;9.36;100.00
38466;BME280;24244;51.950;5.902;2024-02-14T02:57:56;101199.72;;;9.38;100.00
38466;BME280;24244;51.950;5.902;2024-02-14T03:00:22;101191.78;;;9.38;100.00
38466;BME280;24244;51.950;5.902;2024-02-14T03:02:49;101199.56;;;9.39;100.00
38466;BME280;24244;51.950;5.902;2024-02-14T03:05:16;101201.38;;;9.39;100.00
38466;BME280;24244;51.950;5.902;2024-02-14T03:07:49;101189.94;;;9.38;100.00
38466;BME280;24244;51.950;5.902;2024-02-14T03:10:17;101198.72;;;9.39;100.00
38466;BME280;24244;51.950;5.902;2024-02-14T03:12:46;101208.34;;;9.40;100.00
38466;BME280;24244;51.950;5.902;2024-02-14T03:15:15;101202.06;;;9.41;100.00
38466;BME280;24244;51.950;5.902;2024-02-14T03:17:42;101199.25;;;9.42;100.00
38466;BME280;24244;51.950;5.902;2024-02-14T03:20:10;101209.84;;;9.42;100.00
38466;BME280;24244;51.950;5.902;2024-02-14T03:22:43;101212.34;;;9.44;100.00
38466;BME280;24244;51.950;5.902;2024-02-14T03:25:16;101205.22;;;9.45;100.00
38466;BME280;24244;51.950;5.902;2024-02-14T03:27:43;101211.16;;;9.47;100.00
38466;BME280;24244;51.950;5.902;2024-02-14T03:30:17;101216.31;;;9.48;100.00
38466;BME280;24244;51.950;5.902;2024-02-14T03:32:45;101207.53;;;9.48;100.00
38466;BME280;24244;51.950;5.902;2024-02-14T03:35:13;101209.19;;;9.49;100.00
38466;BME280;24244;51.950;5.902;2024-02-14T03:37:40;101210.00;;;9.49;100.00
38466;BME280;24244;51.950;5.902;2024-02-14T03:40:09;101208.03;;;9.51;100.00
38466;BME280;24244;51.950;5.902;2024-02-14T03:42:36;101217.63;;;9.52;100.00
38466;BME280;24244;51.950;5.902;2024-02-14T03:45:06;101217.63;;;9.52;100.00
38466;BME280;24244;51.950;5.902;2024-02-14T03:47:35;101215.78;;;9.53;100.00
38466;BME280;24244;51.950;5.902;2024-02-14T03:50:07;101211.31;;;9.53;100.00
38466;BME280;24244;51.950;5.902;2024-02-14T03:52:34;101212.81;;;9.56;100.00
38466;BME280;24244;51.950;5.902;2024-02-14T03:55:02;101214.47;;;9.57;100.00
38466;BME280;24244;51.950;5.902;2024-02-14T03:57:29;101215.94;;;9.59;100.00
38466;BME280;24244;51.950;5.902;2024-02-14T03:59:58;101219.28;;;9.61;100.00
38466;BME280;24244;51.950;5.902;2024-02-14T04:02:26;101223.59;;;9.62;100.00
38466;BME280;24244;51.950;5.902;2024-02-14T04:04:56;101217.28;;;9.63;100.00
38466;BME280;24244;51.950;5.902;2024-02-14T04:07:23;101225.91;;;9.65;100.00
38466;BME280;24244;51.950;5.902;2024-02-14T04:09:50;101227.56;;;9.66;100.00
38466;BME280;24244;51.950;5.902;2024-02-14T04:12:17;101227.56;;;9.66;100.00
38466;BME280;24244;51.950;5.902;2024-02-14T04:14:44;101226.56;;;9.67;100.00
38466;BME280;24244;51.950;5.902;2024-02-14T04:17:11;101231.88;;;9.67;100.00
38466;BME280;24244;51.950;5.902;2024-02-14T04:19:39;101236.03;;;9.70;100.00
38466;BME280;24244;51.950;5.902;2024-02-14T04:22:08;101239.66;;;9.69;100.00
38466;BME280;24244;51.950;5.902;2024-02-14T04:24:35;101235.19;;;9.69;100.00
38466;BME280;24244;51.950;5.902;2024-02-14T04:27:02;101236.84;;;9.70;100.00
38466;BME280;24244;51.950;5.902;2024-02-14T04:29:31;101242.16;;;9.70;100.00
38466;BME280;24244;51.950;5.902;2024-02-14T04:32:00;101241.16;;;9.71;100.00
38466;BME280;24244;51.950;5.902;2024-02-14T04:34:27;101243.00;;;9.71;100.00
38466;BME280;24244;51.950;5.902;2024-02-14T04:36:54;101244.66;;;9.72;100.00
38466;BME280;24244;51.950;5.902;2024-02-14T04:39:22;101243.81;;;9.71;100.00
38466;BME280;24244;51.950;5.902;2024-02-14T04:41:49;101250.59;;;9.74;100.00
38466;BME280;24244;51.950;5.902;2024-02-14T04:44:27;101254.09;;;9.74;100.00
38466;BME280;24244;51.950;5.902;2024-02-14T04:46:54;101249.59;;;9.75;100.00
38466;BME280;24244;51.950;5.902;2024-02-14T04:49:23;101247.63;;;9.77;100.00
38466;BME280;24244;51.950;5.902;2024-02-14T04:51:50;101262.72;;;9.76;100.00
38466;BME280;24244;51.950;5.902;2024-02-14T04:54:17;101259.06;;;9.77;100.00
38466;BME280;24244;51.950;5.902;2024-02-14T04:56:45;101263.56;;;9.77;100.00
38466;BME280;24244;51.950;5.902;2024-02-14T04:59:15;101255.41;;;9.78;100.00
38466;BME280;24244;51.950;5.902;2024-02-14T05:01:42;101254.44;;;9.79;100.00
38466;BME280;24244;51.950;5.902;2024-02-14T05:04:09;101262.41;;;9.79;100.00
38466;BME280;24244;51.950;5.902;2024-02-14T05:06:36;101271.81;;;9.82;100.00
38466;BME280;24244;51.950;5.902;2024-02-14T05:09:05;101265.69;;;9.81;100.00
38466;BME280;24244;51.950;5.902;2024-02-14T05:11:32;101270.84;;;9.83;100.00
38466;BME280;24244;51.950;5.902;2024-02-14T05:14:00;101273.31;;;9.85;100.00
38466;BME280;24244;51.950;5.902;2024-02-14T05:16:28;101278.63;;;9.85;100.00
38466;BME280;24244;51.950;5.902;2024-02-14T05:18:55;101282.97;;;9.86;100.00
38466;BME280;24244;51.950;5.902;2024-02-14T05:21:22;101281.13;;;9.86;100.00
38466;BME280;24244;51.950;5.902;2024-02-14T05:23:49;101284.63;;;9.87;100.00
38466;BME280;24244;51.950;5.902;2024-02-14T05:26:16;101287.06;;;9.88;100.00
38466;BME280;24244;51.950;5.902;2024-02-14T05:28:43;101291.56;;;9.88;100.00
38466;BME280;24244;51.950;5.902;2024-02-14T05:31:11;101285.44;;;9.87;100.00
38466;BME280;24244;51.950;5.902;2024-02-14T05:33:38;101287.28;;;9.87;100.00
38466;BME280;24244;51.950;5.902;2024-02-14T05:36:06;101293.22;;;9.89;100.00
38466;BME280;24244;51.950;5.902;2024-02-14T05:38:33;101290.41;;;9.90;100.00
38466;BME280;24244;51.950;5.902;2024-02-14T05:41:01;101296.53;;;9.91;100.00
38466;BME280;24244;51.950;5.902;2024-02-14T05:43:28;101292.06;;;9.91;100.00
38466;BME280;24244;51.950;5.902;2024-02-14T05:45:55;101288.41;;;9.92;100.00
38466;BME280;24244;51.950;5.902;2024-02-14T05:48:24;101298.88;;;9.94;100.00
38466;BME280;24244;51.950;5.902;2024-02-14T05:50:51;101304.19;;;9.94;100.00
38466;BME280;24244;51.950;5.902;2024-02-14T05:53:18;101297.06;;;9.94;100.00
38466;BME280;24244;51.950;5.902;2024-02-14T05:55:44;101298.88;;;9.94;100.00
38466;BME280;24244;51.950;5.902;2024-02-14T05:58:11;101297.69;;;9.96;100.00
38466;BME280;24244;51.950;5.902;2024-02-14T06:00:39;101302.84;;;9.98;100.00
38466;BME280;24244;51.950;5.902;2024-02-14T06:03:06;101295.72;;;9.98;100.00
38466;BME280;24244;51.950;5.902;2024-02-14T06:05:35;101300.19;;;9.98;100.00
38466;BME280;24244;51.950;5.902;2024-02-14T06:08:02;101306.31;;;9.98;100.00
38466;BME280;24244;51.950;5.902;2024-02-14T06:10:30;101286.75;;;9.99;100.00
38466;BME280;24244;51.950;5.902;2024-02-14T06:12:56;101299.03;;;10.00;100.00
38466;BME280;24244;51.950;5.902;2024-02-14T06:15:23;101308.00;;;9.99;100.00
38466;BME280;24244;51.950;5.902;2024-02-14T06:17:50;101307.16;;;9.99;100.00
38466;BME280;24244;51.950;5.902;2024-02-14T06:20:17;101308.00;;;9.99;100.00
38466;BME280;24244;51.950;5.902;2024-02-14T06:22:46;101316.78;;;10.00;100.00
38466;BME280;24244;51.950;5.902;2024-02-14T06:25:27;101321.09;;;10.01;100.00
38466;BME280;24244;51.950;5.902;2024-02-14T06:27:53;101308.81;;;10.00;100.00
38466;BME280;24244;51.950;5.902;2024-02-14T06:30:23;101330.06;;;10.00;100.00
38466;BME280;24244;51.950;5.902;2024-02-14T06:32:53;101331.72;;;10.01;100.00
38466;BME280;24244;51.950;5.902;2024-02-14T06:35:21;101335.38;;;10.00;100.00
38466;BME280;24244;51.950;5.902;2024-02-14T06:37:49;101337.88;;;10.01;100.00
38466;BME280;24244;51.950;5.902;2024-02-14T06:40:28;101337.69;;;10.03;100.00
38466;BME280;24244;51.950;5.902;2024-02-14T06:42:56;101340.34;;;10.03;100.00
38466;BME280;24244;51.950;5.902;2024-02-14T06:45:25;101345.50;;;10.04;100.00
38466;BME280;24244;51.950;5.902;2024-02-14T06:47:52;101346.31;;;10.05;100.00
38466;BME280;24244;51.950;5.902;2024-02-14T06:50:19;101340.84;;;10.06;100.00
38466;BME280;24244;51.950;5.902;2024-02-14T06:52:45;101340.84;;;10.06;100.00
38466;BME280;24244;51.950;5.902;2024-02-14T06:55:14;101344.97;;;10.09;100.00
38466;BME280;24244;51.950;5.902;2024-02-14T06:57:40;101338.03;;;10.08;100.00
38466;BME280;24244;51.950;5.902;2024-02-14T07:00:08;101358.25;;;10.09;100.00
38466;BME280;24244;51.950;5.902;2024-02-14T07:02:35;101355.59;;;10.09;100.00
38466;BME280;24244;51.950;5.902;2024-02-14T07:05:03;101359.09;;;10.09;100.00
38466;BME280;24244;51.950;5.902;2024-02-14T07:07:30;101357.25;;;10.10;100.00
38466;BME280;24244;51.950;5.902;2024-02-14T07:09:57;101359.59;;;10.13;100.00
38466;BME280;24244;51.950;5.902;2024-02-14T07:12:25;101360.41;;;10.13;100.00
38466;BME280;24244;51.950;5.902;2024-02-14T07:14:52;101359.44;;;10.14;100.00
38466;BME280;24244;51.950;5.902;2024-02-14T07:17:19;101368.03;;;10.16;100.00
38466;BME280;24244;51.950;5.902;2024-02-14T07:19:46;101366.25;;;10.17;100.00
38466;BME280;24244;51.950;5.902;2024-02-14T07:22:16;101373.06;;;10.19;100.00
38466;BME280;24244;51.950;5.902;2024-02-14T07:24:46;101370.41;;;10.19;100.00
38466;BME280;24244;51.950;5.902;2024-02-14T07:27:14;101360.44;;;10.22;100.00
38466;BME280;24244;51.950;5.902;2024-02-14T07:29:43;101360.59;;;10.20;100.00
38466;BME280;24244;51.950;5.902;2024-02-14T07:32:10;101366.91;;;10.19;100.00
38466;BME280;24244;51.950;5.902;2024-02-14T07:34:38;101371.22;;;10.20;100.00
38466;BME280;24244;51.950;5.902;2024-02-14T07:37:06;101370.41;;;10.19;100.00
38466;BME280;24244;51.950;5.902;2024-02-14T07:39:32;101370.25;;;10.21;100.00
38466;BME280;24244;51.950;5.902;2024-02-14T07:42:01;101367.59;;;10.21;100.00
38466;BME280;24244;51.950;5.902;2024-02-14T07:44:28;101366.59;;;10.22;100.00
38466;BME280;24244;51.950;5.902;2024-02-14T07:46:57;101370.88;;;10.23;100.00
38466;BME280;24244;51.950;5.902;2024-02-14T07:49:29;101369.06;;;10.24;100.00
38466;BME280;24244;51.950;5.902;2024-02-14T07:51:56;101374.38;;;10.24;100.00
38466;BME280;24244;51.950;5.902;2024-02-14T07:54:23;101380.34;;;10.26;100.00
38466;BME280;24244;51.950;5.902;2024-02-14T07:56:50;101368.72;;;10.27;100.00
38466;BME280;24244;51.950;5.902;2024-02-14T07:59:17;101376.53;;;10.28;100.00
38466;BME280;24244;51.950;5.902;2024-02-14T08:01:43;101381.69;;;10.30;100.00
38466;BME280;24244;51.950;5.902;2024-02-14T08:04:12;101384.34;;;10.30;100.00
38466;BME280;24244;51.950;5.902;2024-02-14T08:06:38;101381.50;;;10.31;100.00
38466;BME280;24244;51.950;5.902;2024-02-14T08:09:05;101383.16;;;10.32;100.00
38466;BME280;24244;51.950;5.902;2024-02-14T08:11:36;101390.13;;;10.33;100.00
38466;BME280;24244;51.950;5.902;2024-02-14T08:14:03;101392.78;;;10.33;100.00
38466;BME280;24244;51.950;5.902;2024-02-14T08:16:30;101384.66;;;10.35;100.00
38466;BME280;24244;51.950;5.902;2024-02-14T08:18:57;101386.31;;;10.36;100.00
38466;BME280;24244;51.950;5.902;2024-02-14T08:21:28;101395.13;;;10.36;100.00
38466;BME280;24244;51.950;5.902;2024-02-14T08:23:57;101389.81;;;10.36;100.00
38466;BME280;24244;51.950;5.902;2024-02-14T08:26:27;101401.28;;;10.37;100.00
38466;BME280;24244;51.950;5.902;2024-02-14T08:28:54;101406.59;;;10.37;100.00
38466;BME280;24244;51.950;5.902;2024-02-14T08:31:21;101401.44;;;10.35;100.00
38466;BME280;24244;51.950;5.902;2024-02-14T08:33:48;101404.09;;;10.35;100.00
38466;BME280;24244;51.950;5.902;2024-02-14T08:36:16;101400.44;;;10.36;100.00
38466;BME280;24244;51.950;5.902;2024-02-14T08:38:45;101396.13;;;10.35;100.00
38466;BME280;24244;51.950;5.902;2024-02-14T08:41:12;101398.78;;;10.35;100.00
38466;BME280;24244;51.950;5.902;2024-02-14T08:43:38;101395.13;;;10.36;100.00
38466;BME280;24244;51.950;5.902;2024-02-14T08:46:09;101400.09;;;10.39;100.00
38466;BME280;24244;51.950;5.902;2024-02-14T08:48:36;101400.09;;;10.39;100.00
38466;BME280;24244;51.950;5.902;2024-02-14T08:51:07;101401.75;;;10.40;100.00
38466;BME280;24244;51.950;5.902;2024-02-14T08:53:35;101405.06;;;10.42;100.00
38466;BME280;24244;51.950;5.902;2024-02-14T08:56:04;101400.75;;;10.41;100.00
38466;BME280;24244;51.950;5.902;2024-02-14T08:58:31;101407.06;;;10.40;100.00
38466;BME280;24244;51.950;5.902;2024-02-14T09:00:58;101399.75;;;10.42;100.00
38466;BME280;24244;51.950;5.902;2024-02-14T09:03:39;101403.25;;;10.43;100.00
38466;BME280;24244;51.950;5.902;2024-02-14T09:06:06;101406.75;;;10.43;100.00
38466;BME280;24244;51.950;5.902;2024-02-14T09:08:33;101405.75;;;10.44;100.00
38466;BME280;24244;51.950;5.902;2024-02-14T09:11:00;101399.59;;;10.44;100.00
38466;BME280;24244;51.950;5.902;2024-02-14T09:13:28;101407.38;;;10.45;100.00
38466;BME280;24244;51.950;5.902;2024-02-14T09:15:55;101414.34;;;10.46;100.00
38466;BME280;24244;51.950;5.902;2024-02-14T09:18:22;101412.38;;;10.48;100.00
38466;BME280;24244;51.950;5.902;2024-02-14T09:20:51;101408.72;;;10.49;100.00
38466;BME280;24244;51.950;5.902;2024-02-14T09:23:18;101419.19;;;10.51;100.00
38466;BME280;24244;51.950;5.902;2024-02-14T09:25:49;101424.31;;;10.52;100.00
38466;BME280;24244;51.950;5.902;2024-02-14T09:28:16;101425.97;;;10.53;100.00
38466;BME280;24244;51.950;5.902;2024-02-14T09:30:44;101421.47;;;10.54;100.00
38466;BME280;24244;51.950;5.902;2024-02-14T09:33:11;101425.81;;;10.55;100.00
38466;BME280;24244;51.950;5.902;2024-02-14T09:35:38;101418.66;;;10.55;100.00
38466;BME280;24244;51.950;5.902;2024-02-14T09:38:11;101431.94;;;10.55;100.00
38466;BME280;24244;51.950;5.902;2024-02-14T09:40:40;101444.25;;;10.56;100.00
38466;BME280;24244;51.950;5.902;2024-02-14T09:43:12;101438.94;;;10.56;100.00
38466;BME280;24244;51.950;5.902;2024-02-14T09:45:43;101439.78;;;10.57;100.00
38466;BME280;24244;51.950;5.902;2024-02-14T09:48:12;101439.78;;;10.57;100.00
38466;BME280;24244;51.950;5.902;2024-02-14T09:50:39;101445.91;;;10.57;100.00
38466;BME280;24244;51.950;5.902;2024-02-14T09:53:07;101436.94;;;10.58;100.00
38466;BME280;24244;51.950;5.902;2024-02-14T09:55:36;101442.25;;;10.58;100.00
38466;BME280;24244;51.950;5.902;2024-02-14T09:58:06;101436.13;;;10.58;100.00
38466;BME280;24244;51.950;5.902;2024-02-14T10:00:34;101437.59;;;10.60;100.00
38466;BME280;24244;51.950;5.902;2024-02-14T10:03:03;101441.75;;;10.63;100.00
38466;BME280;24244;51.950;5.902;2024-02-14T10:05:30;101440.75;;;10.64;100.00
38466;BME280;24244;51.950;5.902;2024-02-14T10:07:57;101445.91;;;10.66;100.00
38466;BME280;24244;51.950;5.902;2024-02-14T10:10:24;101442.22;;;10.67;100.00
38466;BME280;24244;51.950;5.902;2024-02-14T10:12:51;101443.06;;;10.67;100.00
38466;BME280;24244;51.950;5.902;2024-02-14T10:15:18;101454.19;;;10.71;100.00
38466;BME280;24244;51.950;5.902;2024-02-14T10:17:45;101452.38;;;10.71;100.00
38466;BME280;24244;51.950;5.902;2024-02-14T10:20:16;101456.50;;;10.74;100.00
38466;BME280;24244;51.950;5.902;2024-02-14T10:22:43;101452.84;;;10.75;100.00
38466;BME280;24244;51.950;5.902;2024-02-14T10:25:11;101454.50;;;10.76;100.00
38466;BME280;24244;51.950;5.902;2024-02-14T10:27:38;101455.16;;;10.78;100.00
38466;BME280;24244;51.950;5.902;2024-02-14T10:30:06;101447.84;;;10.80;100.00
38466;BME280;24244;51.950;5.902;2024-02-14T10:32:37;101455.63;;;10.81;100.00
38466;BME280;24244;51.950;5.902;2024-02-14T10:35:05;101465.13;;;10.84;100.00
38466;BME280;24244;51.950;5.902;2024-02-14T10:37:37;101460.47;;;10.86;100.00
38466;BME280;24244;51.950;5.902;2024-02-14T10:40:05;101465.59;;;10.87;100.00
38466;BME280;24244;51.950;5.902;2024-02-14T10:42:33;101468.09;;;10.89;100.00
38466;BME280;24244;51.950;5.902;2024-02-14T10:45:01;101470.59;;;10.90;100.00
38466;BME280;24244;51.950;5.902;2024-02-14T10:47:30;101463.44;;;10.91;100.00
38466;BME280;24244;51.950;5.902;2024-02-14T10:50:02;101460.44;;;10.94;100.00
38466;BME280;24244;51.950;5.902;2024-02-14T10:52:30;101460.44;;;10.94;100.00
38466;BME280;24244;51.950;5.902;2024-02-14T10:55:02;101471.72;;;10.96;100.00
38466;BME280;24244;51.950;5.902;2024-02-14T10:57:30;101469.72;;;10.98;100.00
38466;BME280;24244;51.950;5.902;2024-02-14T11:00:01;101475.88;;;10.98;100.00
38466;BME280;24244;51.950;5.902;2024-02-14T11:02:29;101480.03;;;11.01;100.00
38466;BME280;24244;51.950;5.902;2024-02-14T11:04:57;101467.38;;;11.03;100.00
38466;BME280;24244;51.950;5.902;2024-02-14T11:07:27;101470.88;;;11.04;100.00
38466;BME280;24244;51.950;5.902;2024-02-14T11:10:04;101460.06;;;11.05;100.00
38466;BME280;24244;51.950;5.902;2024-02-14T11:12:33;101467.72;;;11.08;100.00
38466;BME280;24244;51.950;5.902;2024-02-14T11:15:00;101466.53;;;11.11;100.00
38466;BME280;24244;51.950;5.902;2024-02-14T11:17:29;101461.69;;;11.14;100.00
38466;BME280;24244;51.950;5.902;2024-02-14T11:19:57;101468.47;;;11.17;100.00
38466;BME280;24244;51.950;5.902;2024-02-14T11:22:24;101460.34;;;11.18;100.00
38466;BME280;24244;51.950;5.902;2024-02-14T11:24:52;101456.69;;;11.19;100.00
38466;BME280;24244;51.950;5.902;2024-02-14T11:27:22;101462.66;;;11.21;100.00
38466;BME280;24244;51.950;5.902;2024-02-14T11:30:00;101456.34;;;11.22;100.00
38466;BME280;24244;51.950;5.902;2024-02-14T11:32:28;101456.16;;;11.24;100.00
38466;BME280;24244;51.950;5.902;2024-02-14T11:34:55;101460.47;;;11.25;100.00
38466;BME280;24244;51.950;5.902;2024-02-14T11:37:27;101448.84;;;11.26;100.00
38466;BME280;24244;51.950;5.902;2024-02-14T11:39:54;101451.50;;;11.26;100.00
38466;BME280;24244;51.950;5.902;2024-02-14T11:42:24;101444.16;;;11.28;100.00
38466;BME280;24244;51.950;5.902;2024-02-14T11:44:53;101432.31;;;11.30;100.00
38466;BME280;24244;51.950;5.902;2024-02-14T11:47:22;101442.97;;;11.30;100.00
38466;BME280;24244;51.950;5.902;2024-02-14T11:49:49;101439.31;;;11.31;100.00
38466;BME280;24244;51.950;5.902;2024-02-14T11:52:17;101448.28;;;11.30;100.00
38466;BME280;24244;51.950;5.902;2024-02-14T11:54:46;101447.28;;;11.31;100.00
38466;BME280;24244;51.950;5.902;2024-02-14T11:57:17;101449.13;;;11.31;100.00
38466;BME280;24244;51.950;5.902;2024-02-14T11:59:45;101446.28;;;11.32;100.00
38466;BME280;24244;51.950;5.902;2024-02-14T12:02:14;101437.47;;;11.32;100.00
38466;BME280;24244;51.950;5.902;2024-02-14T12:04:42;101445.31;;;11.33;100.00
38466;BME280;24244;51.950;5.902;2024-02-14T12:07:10;101430.16;;;11.34;100.00
38466;BME280;24244;51.950;5.902;2024-02-14T12:09:37;101438.16;;;11.34;100.00
38466;BME280;24244;51.950;5.902;2024-02-14T12:12:04;101435.47;;;11.34;100.00
38466;BME280;24244;51.950;5.902;2024-02-14T12:14:32;101438.97;;;11.34;100.00
38466;BME280;24244;51.950;5.902;2024-02-14T12:17:01;101436.97;;;11.36;100.00
38466;BME280;24244;51.950;5.902;2024-02-14T12:19:33;101437.59;;;11.38;100.00
38466;BME280;24244;51.950;5.902;2024-02-14T12:22:02;101432.13;;;11.40;100.00
38466;BME280;24244;51.950;5.902;2024-02-14T12:24:29;101428.63;;;11.39;100.00
38466;BME280;24244;51.950;5.902;2024-02-14T12:26:56;101428.28;;;11.43;100.00
38466;BME280;24244;51.950;5.902;2024-02-14T12:29:23;101425.44;;;11.44;100.00
38466;BME280;24244;51.950;5.902;2024-02-14T12:31:51;101432.25;;;11.47;100.00
38466;BME280;24244;51.950;5.902;2024-02-14T12:34:19;101434.91;;;11.47;100.00
38466;BME280;24244;51.950;5.902;2024-02-14T12:36:51;101430.25;;;11.49;100.00
38466;BME280;24244;51.950;5.902;2024-02-14T12:39:18;101444.56;;;11.48;100.00
38466;BME280;24244;51.950;5.902;2024-02-14T12:41:45;101436.56;;;11.48;100.00
38466;BME280;24244;51.950;5.902;2024-02-14T12:44:12;101436.56;;;11.48;100.00
38466;BME280;24244;51.950;5.902;2024-02-14T12:46:39;101435.56;;;11.49;100.00
38466;BME280;24244;51.950;5.902;2024-02-14T12:49:06;101428.25;;;11.51;100.00